createdAt,value
2023-02-24T00:02:14.961Z,66.16
2023-02-24T00:04:42.122Z,66.23
2023-02-24T00:07:12.703Z,66.20
2023-02-24T00:09:40.089Z,66.08
2023-02-24T00:12:11.064Z,66.33
2023-02-24T00:14:42.447Z,67.13
2023-02-24T00:17:10.912Z,66.92
2023-02-24T00:19:38.544Z,67.03
2023-02-24T00:22:08.229Z,66.45
2023-02-24T00:24:35.983Z,66.29
2023-02-24T00:27:07.920Z,66.40
2023-02-24T00:29:37.557Z,66.67
2023-02-24T00:32:07.222Z,67.01
2023-02-24T00:34:37.535Z,66.99
2023-02-24T00:37:08.471Z,67.10
2023-02-24T00:39:36.998Z,67.29
2023-02-24T00:42:06.212Z,67.71
2023-02-24T00:44:54.027Z,67.66
2023-02-24T00:47:22.392Z,67.37
2023-02-24T00:49:50.201Z,67.75
2023-02-24T00:52:20.383Z,67.34
2023-02-24T00:54:49.585Z,66.87
2023-02-24T00:57:18.353Z,66.45
2023-02-24T00:59:48.715Z,66.29
2023-02-24T01:02:16.169Z,66.35
2023-02-24T01:04:44.446Z,66.47
2023-02-24T01:07:12.931Z,66.68
2023-02-24T01:09:41.851Z,67.40
2023-02-24T01:12:32.199Z,66.76
2023-02-24T01:14:59.472Z,66.71
2023-02-24T01:17:26.330Z,67.11
2023-02-24T01:19:55.065Z,66.70
2023-02-24T01:22:22.649Z,67.34
2023-02-24T01:24:49.794Z,67.31
2023-02-24T01:27:19.310Z,66.73
2023-02-24T01:29:47.845Z,66.65
2023-02-24T01:32:20.000Z,66.52
2023-02-24T01:34:51.526Z,66.39
2023-02-24T01:37:19.544Z,66.11
2023-02-24T01:39:47.014Z,66.06
2023-02-24T01:42:19.206Z,65.91
2023-02-24T01:44:46.164Z,65.90
2023-02-24T01:47:14.476Z,65.91
2023-02-24T01:49:45.903Z,65.83
2023-02-24T01:52:23.527Z,66.18
2023-02-24T01:54:57.970Z,66.25
2023-02-24T01:57:29.818Z,66.88
2023-02-24T02:00:09.631Z,67.02
2023-02-24T02:02:38.948Z,67.12
2023-02-24T02:05:09.824Z,67.20
2023-02-24T02:07:41.207Z,66.95
2023-02-24T02:10:09.547Z,67.12
2023-02-24T02:12:44.081Z,67.26
2023-02-24T02:15:20.435Z,67.29
2023-02-24T02:18:20.654Z,67.16
2023-02-24T02:21:25.149Z,67.35
2023-02-24T02:24:29.463Z,67.58
2023-02-24T02:27:35.429Z,67.73
2023-02-24T02:30:43.838Z,68.07
2023-02-24T02:33:49.282Z,67.85
2023-02-24T02:36:57.349Z,67.69
2023-02-24T02:39:49.105Z,67.92
2023-02-24T02:42:28.088Z,67.40
2023-02-24T02:45:07.769Z,67.24
2023-02-24T02:47:44.279Z,67.41
2023-02-24T02:50:21.928Z,67.31
2023-02-24T02:53:00.083Z,67.04
2023-02-24T02:55:37.605Z,67.28
2023-02-24T02:58:09.564Z,67.50
2023-02-24T03:00:43.065Z,68.03
2023-02-24T03:03:16.261Z,67.99
2023-02-24T03:05:52.693Z,67.58
2023-02-24T03:08:26.153Z,67.43
2023-02-24T03:10:54.224Z,67.30
2023-02-24T03:13:30.296Z,67.76
2023-02-24T03:16:02.335Z,67.51
2023-02-24T03:18:39.349Z,67.11
2023-02-24T03:21:11.875Z,67.43
2023-02-24T03:23:46.388Z,67.29
2023-02-24T03:26:52.197Z,67.21
2023-02-24T03:29:50.064Z,67.05
2023-02-24T03:32:25.372Z,67.50
2023-02-24T03:35:12.678Z,67.61
2023-02-24T03:37:39.587Z,67.42
2023-02-24T03:40:17.265Z,67.93
2023-02-24T03:42:47.862Z,67.56
2023-02-24T03:45:17.300Z,67.65
2023-02-24T03:47:47.425Z,67.61
2023-02-24T03:50:21.943Z,66.89
2023-02-24T03:53:31.748Z,66.65
2023-02-24T03:56:22.373Z,66.61
2023-02-24T03:59:23.710Z,66.80
2023-02-24T04:01:57.778Z,67.24
2023-02-24T04:04:51.790Z,67.20
2023-02-24T04:07:44.872Z,67.68
2023-02-24T04:10:27.416Z,67.57
2023-02-24T04:13:19.574Z,68.05
2023-02-24T04:15:58.945Z,67.98
2023-02-24T04:18:31.579Z,68.32
2023-02-24T04:21:02.138Z,68.42
2023-02-24T04:23:34.103Z,68.01
2023-02-24T04:26:01.933Z,67.97
2023-02-24T04:28:29.843Z,68.03
2023-02-24T04:31:06.050Z,68.09
2023-02-24T04:33:33.730Z,68.42
2023-02-24T04:36:00.623Z,68.25
2023-02-24T04:38:27.797Z,68.23
2023-02-24T04:40:55.226Z,68.15
2023-02-24T04:43:22.030Z,68.35
2023-02-24T04:45:51.455Z,68.16
2023-02-24T04:48:20.216Z,67.86
2023-02-24T04:50:48.913Z,68.06
2023-02-24T04:53:17.081Z,67.95
2023-02-24T04:55:50.595Z,69.36
2023-02-24T04:58:27.450Z,69.32
2023-02-24T05:00:55.868Z,68.95
2023-02-24T05:03:27.967Z,68.83
2023-02-24T05:06:00.090Z,69.00
2023-02-24T05:08:29.399Z,68.51
2023-02-24T05:10:58.559Z,68.91
2023-02-24T05:13:28.237Z,68.78
2023-02-24T05:15:58.350Z,68.55
2023-02-24T05:18:26.243Z,68.92
2023-02-24T05:21:14.407Z,69.20
2023-02-24T05:23:46.793Z,68.86
2023-02-24T05:26:19.496Z,68.91
2023-02-24T05:28:52.153Z,68.97
2023-02-24T05:31:28.870Z,68.71
2023-02-24T05:34:03.262Z,69.19
2023-02-24T05:36:40.802Z,68.98
2023-02-24T05:39:11.975Z,68.67
2023-02-24T05:41:42.498Z,68.00
2023-02-24T05:44:13.770Z,68.04
2023-02-24T05:46:46.471Z,68.13
2023-02-24T05:49:32.894Z,68.23
2023-02-24T05:52:07.344Z,68.48
2023-02-24T05:54:39.800Z,68.35
2023-02-24T05:57:15.298Z,68.33
2023-02-24T05:59:44.509Z,68.61
2023-02-24T06:02:15.297Z,68.84
2023-02-24T06:04:51.564Z,68.73
2023-02-24T06:07:25.443Z,68.43
2023-02-24T06:09:58.580Z,68.70
2023-02-24T06:12:30.091Z,68.92
2023-02-24T06:14:58.281Z,68.86
2023-02-24T06:17:25.614Z,68.75
2023-02-24T06:19:54.064Z,68.65
2023-02-24T06:22:25.371Z,68.09
2023-02-24T06:24:54.836Z,67.84
2023-02-24T06:27:24.484Z,67.74
2023-02-24T06:29:54.459Z,68.53
2023-02-24T06:32:25.052Z,68.52
2023-02-24T06:34:56.125Z,69.15
2023-02-24T06:37:23.400Z,69.01
2023-02-24T06:39:50.855Z,69.45
2023-02-24T06:42:17.763Z,69.46
2023-02-24T06:44:45.300Z,69.37
2023-02-24T06:47:14.471Z,69.22
2023-02-24T06:49:42.783Z,69.94
2023-02-24T06:52:11.643Z,69.82
2023-02-24T06:54:38.615Z,69.30
2023-02-24T06:57:05.539Z,68.53
2023-02-24T06:59:33.115Z,68.70
2023-02-24T07:02:04.475Z,68.70
2023-02-24T07:04:43.488Z,67.91
2023-02-24T07:07:10.840Z,70.63
2023-02-24T07:09:37.621Z,69.82
2023-02-24T07:12:04.816Z,69.14
2023-02-24T07:14:31.871Z,69.11
2023-02-24T07:16:59.769Z,68.89
2023-02-24T07:19:29.855Z,68.79
2023-02-24T07:22:03.568Z,68.26
2023-02-24T07:24:37.547Z,68.62
2023-02-24T07:27:13.108Z,67.40
2023-02-24T07:29:40.350Z,67.16
2023-02-24T07:32:10.095Z,67.51
2023-02-24T07:34:40.679Z,67.20
2023-02-24T07:37:09.149Z,67.92
2023-02-24T07:39:39.116Z,66.83
2023-02-24T07:42:08.513Z,66.57
2023-02-24T07:44:35.387Z,66.92
2023-02-24T07:47:07.746Z,67.09
2023-02-24T07:49:35.729Z,66.25
2023-02-24T07:52:02.559Z,66.65
2023-02-24T07:54:30.312Z,65.90
2023-02-24T07:56:59.515Z,65.14
2023-02-24T07:59:30.206Z,66.02
2023-02-24T08:01:57.711Z,65.90
2023-02-24T08:04:30.514Z,66.06
2023-02-24T08:07:02.374Z,66.27
2023-02-24T08:09:46.939Z,65.64
2023-02-24T08:12:21.291Z,65.18
2023-02-24T08:14:52.428Z,65.81
2023-02-24T08:17:26.532Z,67.43
2023-02-24T08:20:21.599Z,67.42
2023-02-24T08:22:52.247Z,67.76
2023-02-24T08:25:35.365Z,66.64
2023-02-24T08:28:09.210Z,66.82
2023-02-24T08:30:45.560Z,66.20
2023-02-24T08:33:23.205Z,66.53
2023-02-24T08:36:01.221Z,66.63
2023-02-24T08:38:42.529Z,65.85
2023-02-24T08:41:19.985Z,66.06
2023-02-24T08:43:49.146Z,67.23
2023-02-24T08:46:21.363Z,65.88
2023-02-24T08:48:55.701Z,64.80
2023-02-24T08:51:30.620Z,67.43
2023-02-24T08:54:10.911Z,67.91
2023-02-24T08:56:43.340Z,67.18
2023-02-24T08:59:28.967Z,66.04
2023-02-24T09:02:17.190Z,64.78
2023-02-24T09:04:56.613Z,65.25
2023-02-24T09:07:35.299Z,64.70
2023-02-24T09:10:17.728Z,65.06
2023-02-24T09:12:45.324Z,64.31
2023-02-24T09:15:15.830Z,64.24
2023-02-24T09:17:44.948Z,64.21
2023-02-24T09:20:28.185Z,63.89
2023-02-24T09:23:03.311Z,62.89
2023-02-24T09:25:44.045Z,63.38
2023-02-24T09:28:24.498Z,64.33
2023-02-24T09:30:57.458Z,63.72
2023-02-24T09:33:38.581Z,62.54
2023-02-24T09:36:12.719Z,62.48
2023-02-24T09:38:59.232Z,62.40
2023-02-24T09:41:57.059Z,62.95
2023-02-24T09:44:36.600Z,62.06
2023-02-24T09:47:15.934Z,64.10
2023-02-24T09:49:56.263Z,64.04
2023-02-24T09:52:43.633Z,62.54
2023-02-24T09:55:35.863Z,61.27
2023-02-24T09:58:43.654Z,62.04
2023-02-24T10:02:02.634Z,60.39
2023-02-24T10:05:07.204Z,62.77
2023-02-24T10:07:40.294Z,62.09
2023-02-24T10:10:35.802Z,60.78
2023-02-24T10:13:30.372Z,61.23
2023-02-24T10:16:07.000Z,63.29
2023-02-24T10:18:45.519Z,63.56
2023-02-24T10:21:49.987Z,64.78
2023-02-24T10:24:34.316Z,65.89
2023-02-24T10:27:16.896Z,64.23
2023-02-24T10:30:10.966Z,64.08
2023-02-24T10:32:58.776Z,62.83
2023-02-24T10:35:33.593Z,62.47
2023-02-24T10:38:05.795Z,60.85
2023-02-24T10:40:46.975Z,60.61
2023-02-24T10:43:29.791Z,60.90
2023-02-24T10:46:06.252Z,61.18
2023-02-24T10:48:42.242Z,61.82
2023-02-24T10:51:22.984Z,62.71
2023-02-24T10:54:09.743Z,62.55
2023-02-24T10:56:44.791Z,63.59
2023-02-24T10:59:40.964Z,64.03
2023-02-24T11:02:32.753Z,64.30
2023-02-24T11:05:27.045Z,65.40
2023-02-24T11:08:38.199Z,63.05
2023-02-24T11:11:20.375Z,62.06
2023-02-24T11:14:10.000Z,62.96
2023-02-24T11:17:12.506Z,63.32
2023-02-24T11:20:15.110Z,61.78
2023-02-24T11:22:46.430Z,62.06
2023-02-24T11:25:24.263Z,61.05
2023-02-24T11:27:55.006Z,61.00
2023-02-24T11:30:36.730Z,59.79
2023-02-24T11:33:10.431Z,58.23
2023-02-24T11:36:05.213Z,58.32
2023-02-24T11:38:45.316Z,57.94
2023-02-24T11:41:35.083Z,58.16
2023-02-24T11:44:23.272Z,58.17
2023-02-24T11:46:59.197Z,59.79
2023-02-24T11:49:45.474Z,59.41
2023-02-24T11:52:27.424Z,58.83
2023-02-24T11:54:58.142Z,59.49
2023-02-24T11:57:40.422Z,58.13
2023-02-24T12:00:50.009Z,56.87
2023-02-24T12:03:32.128Z,56.99
2023-02-24T12:06:21.338Z,56.89
2023-02-24T12:08:54.415Z,55.47
2023-02-24T12:11:38.637Z,56.55
2023-02-24T12:14:23.420Z,55.49
2023-02-24T12:17:03.247Z,55.22
2023-02-24T12:19:51.687Z,56.24
2023-02-24T12:22:18.872Z,55.19
2023-02-24T12:24:51.508Z,56.46
2023-02-24T12:28:05.746Z,56.46
2023-02-24T12:31:08.742Z,56.88
2023-02-24T12:34:08.610Z,58.44
2023-02-24T12:36:51.339Z,56.90
2023-02-24T12:39:29.799Z,56.89
2023-02-24T12:42:29.821Z,56.77
2023-02-24T12:45:12.460Z,56.20
2023-02-24T12:48:04.340Z,56.05
2023-02-24T12:50:42.442Z,55.59
2023-02-24T12:53:23.368Z,56.13
2023-02-24T12:56:00.418Z,56.18
2023-02-24T12:58:34.365Z,57.51
2023-02-24T13:01:28.107Z,57.45
2023-02-24T13:04:37.857Z,56.83
2023-02-24T13:07:35.674Z,57.72
2023-02-24T13:10:14.389Z,56.79
2023-02-24T13:13:15.550Z,58.00
2023-02-24T13:15:55.096Z,58.42
2023-02-24T13:18:28.800Z,57.66
2023-02-24T13:21:22.611Z,56.95
2023-02-24T13:24:01.448Z,56.94
2023-02-24T13:26:31.294Z,56.73
2023-02-24T13:29:17.857Z,56.32
2023-02-24T13:31:52.842Z,55.81
2023-02-24T13:34:42.371Z,54.62
2023-02-24T13:37:10.761Z,54.37
2023-02-24T13:39:47.002Z,54.80
2023-02-24T13:42:20.619Z,55.51
2023-02-24T13:45:19.592Z,55.18
2023-02-24T13:48:10.517Z,53.48
2023-02-24T13:51:32.588Z,54.16
2023-02-24T13:54:34.654Z,53.60
2023-02-24T13:57:25.726Z,53.64
2023-02-24T14:00:21.686Z,54.59
2023-02-24T14:02:52.835Z,55.27
2023-02-24T14:05:35.906Z,54.40
2023-02-24T14:08:04.670Z,54.78
2023-02-24T14:10:34.682Z,50.44
2023-02-24T14:13:27.789Z,48.50
2023-02-24T14:15:56.490Z,47.79
2023-02-24T14:18:29.732Z,48.98
2023-02-24T14:20:58.254Z,49.55
2023-02-24T14:23:31.614Z,49.89
2023-02-24T14:26:02.121Z,50.59
2023-02-24T14:28:33.539Z,51.63
2023-02-24T14:31:09.137Z,53.06
2023-02-24T14:33:44.950Z,54.05
2023-02-24T14:36:19.324Z,53.98
2023-02-24T14:38:46.854Z,54.25
2023-02-24T14:41:25.276Z,58.20
2023-02-24T14:43:53.750Z,57.46
2023-02-24T14:46:21.377Z,60.45
2023-02-24T14:48:55.369Z,59.75
2023-02-24T14:51:35.443Z,59.96
2023-02-24T14:54:09.013Z,60.92
2023-02-24T14:56:37.030Z,60.32
2023-02-24T14:59:24.701Z,60.01
2023-02-24T15:01:54.721Z,62.99
2023-02-24T15:04:24.499Z,61.52
2023-02-24T15:06:51.639Z,61.68
2023-02-24T15:09:29.575Z,62.35
2023-02-24T15:11:56.696Z,62.02
2023-02-24T15:14:29.800Z,62.07
2023-02-24T15:17:01.971Z,60.98
2023-02-24T15:19:35.986Z,62.83
2023-02-24T15:22:03.796Z,62.96
2023-02-24T15:24:34.172Z,63.35
2023-02-24T15:27:24.453Z,63.21
2023-02-24T15:30:30.279Z,64.60
2023-02-24T15:33:20.695Z,64.45
2023-02-24T15:35:55.372Z,64.44
2023-02-24T15:38:29.498Z,64.14
2023-02-24T15:41:00.399Z,65.61
2023-02-24T15:43:38.350Z,66.08
2023-02-24T15:46:15.335Z,65.64
2023-02-24T15:48:48.156Z,66.28
2023-02-24T15:51:40.402Z,66.83
2023-02-24T15:54:17.233Z,66.16
2023-02-24T15:56:45.393Z,64.99
2023-02-24T15:59:21.927Z,65.77
2023-02-24T16:01:49.068Z,64.71
2023-02-24T16:04:15.991Z,64.26
2023-02-24T16:06:54.615Z,65.04
2023-02-24T16:09:40.283Z,63.76
2023-02-24T16:12:25.087Z,63.91
2023-02-24T16:15:02.086Z,63.84
2023-02-24T16:17:41.698Z,63.95
2023-02-24T16:20:28.597Z,65.01
2023-02-24T16:22:57.515Z,65.13
2023-02-24T16:25:25.893Z,64.28
2023-02-24T16:27:57.155Z,64.52
2023-02-24T16:30:30.490Z,64.62
2023-02-24T16:32:59.629Z,65.03
2023-02-24T16:35:28.209Z,64.73
2023-02-24T16:37:55.241Z,64.38
2023-02-24T16:40:30.732Z,64.88
2023-02-24T16:42:57.804Z,65.07
2023-02-24T16:45:32.051Z,65.50
2023-02-24T16:48:02.506Z,64.87
2023-02-24T16:50:42.703Z,65.05
2023-02-24T16:53:18.686Z,65.03
2023-02-24T16:55:46.877Z,66.37
2023-02-24T16:58:14.276Z,65.41
2023-02-24T17:00:44.820Z,65.67
2023-02-24T17:03:25.906Z,65.49
2023-02-24T17:05:53.526Z,65.84
2023-02-24T17:08:21.246Z,65.96
2023-02-24T17:10:49.565Z,66.67
2023-02-24T17:13:20.217Z,66.61
2023-02-24T17:15:47.616Z,67.37
2023-02-24T17:18:14.438Z,68.32
2023-02-24T17:20:42.465Z,66.13
2023-02-24T17:23:11.368Z,66.71
2023-02-24T17:25:38.868Z,66.98
2023-02-24T17:28:06.499Z,67.43
2023-02-24T17:30:35.479Z,66.33
2023-02-24T17:33:03.237Z,66.48
2023-02-24T17:35:30.080Z,66.53
2023-02-24T17:37:56.992Z,65.85
2023-02-24T17:40:24.231Z,66.88
2023-02-24T17:42:51.399Z,65.92
2023-02-24T17:45:18.456Z,66.78
2023-02-24T17:47:45.357Z,67.32
2023-02-24T17:50:13.336Z,66.44
2023-02-24T17:52:40.752Z,66.63
2023-02-24T17:55:08.597Z,66.56
2023-02-24T17:57:36.493Z,67.67
2023-02-24T18:00:05.692Z,67.50
2023-02-24T18:02:32.753Z,66.01
2023-02-24T18:05:01.145Z,65.89
2023-02-24T18:07:28.175Z,65.48
2023-02-24T18:09:54.998Z,66.10
2023-02-24T18:12:21.858Z,66.21
2023-02-24T18:14:59.093Z,66.14
2023-02-24T18:17:33.253Z,66.18
2023-02-24T18:20:00.118Z,66.79
2023-02-24T18:22:27.042Z,65.64
2023-02-24T18:24:53.844Z,66.71
2023-02-24T18:27:22.177Z,66.21
2023-02-24T18:29:49.020Z,66.46
2023-02-24T18:32:16.181Z,66.65
2023-02-24T18:34:43.135Z,66.61
2023-02-24T18:37:09.966Z,65.86
2023-02-24T18:39:36.898Z,66.40
2023-02-24T18:42:03.992Z,66.50
2023-02-24T18:44:31.138Z,65.70
2023-02-24T18:46:58.043Z,65.14
2023-02-24T18:49:24.949Z,67.04
2023-02-24T18:51:51.770Z,67.45
2023-02-24T18:54:19.458Z,65.74
2023-02-24T18:56:46.287Z,65.77
2023-02-24T18:59:13.202Z,65.18
2023-02-24T19:01:40.319Z,65.75
2023-02-24T19:04:08.702Z,65.53
2023-02-24T19:06:36.417Z,66.00
2023-02-24T19:09:10.834Z,65.60
2023-02-24T19:11:40.402Z,67.37
2023-02-24T19:14:09.874Z,67.22
2023-02-24T19:16:38.468Z,67.90
2023-02-24T19:19:05.975Z,68.60
2023-02-24T19:21:33.860Z,68.59
2023-02-24T19:24:03.537Z,69.34
2023-02-24T19:26:30.827Z,67.57
2023-02-24T19:28:58.875Z,67.51
2023-02-24T19:31:29.211Z,67.67
2023-02-24T19:34:02.308Z,68.02
2023-02-24T19:36:31.455Z,68.37
2023-02-24T19:38:58.605Z,68.48
2023-02-24T19:41:25.677Z,70.14
2023-02-24T19:43:52.849Z,70.02
2023-02-24T19:46:20.178Z,69.50
2023-02-24T19:48:48.495Z,70.17
2023-02-24T19:51:22.765Z,69.04
2023-02-24T19:53:57.608Z,69.65
2023-02-24T19:56:33.449Z,69.53
2023-02-24T19:59:02.775Z,68.70
2023-02-24T20:01:30.568Z,68.29
2023-02-24T20:04:00.811Z,69.08
2023-02-24T20:06:32.091Z,68.12
2023-02-24T20:09:00.533Z,69.28
2023-02-24T20:11:32.842Z,68.74
2023-02-24T20:13:59.719Z,68.38
2023-02-24T20:16:28.615Z,68.05
2023-02-24T20:18:55.750Z,68.45
2023-02-24T20:21:22.742Z,68.32
2023-02-24T20:23:50.572Z,69.22
2023-02-24T20:26:17.890Z,68.13
2023-02-24T20:28:47.720Z,68.33
2023-02-24T20:31:18.475Z,68.32
2023-02-24T20:33:49.172Z,69.01
2023-02-24T20:36:28.092Z,67.87
2023-02-24T20:38:57.685Z,67.42
2023-02-24T20:41:26.480Z,68.41
2023-02-24T20:43:54.638Z,67.57
2023-02-24T20:46:30.438Z,67.40
2023-02-24T20:49:04.456Z,66.62
2023-02-24T20:51:32.816Z,67.67
2023-02-24T20:54:00.505Z,67.42
2023-02-24T20:56:32.866Z,67.55
2023-02-24T20:59:07.457Z,66.80
2023-02-24T21:01:36.441Z,67.80
2023-02-24T21:04:04.037Z,67.96
2023-02-24T21:06:31.543Z,68.13
2023-02-24T21:08:58.979Z,67.91
2023-02-24T21:11:30.144Z,68.05
2023-02-24T21:13:57.770Z,67.92
2023-02-24T21:16:25.454Z,68.37
2023-02-24T21:18:53.332Z,68.80
2023-02-24T21:21:20.976Z,68.81
2023-02-24T21:23:48.462Z,68.32
2023-02-24T21:26:15.789Z,68.31
2023-02-24T21:28:42.900Z,68.30
2023-02-24T21:31:12.965Z,67.96
2023-02-24T21:33:39.978Z,67.19
2023-02-24T21:36:13.366Z,67.50
2023-02-24T21:38:41.324Z,69.07
2023-02-24T21:41:14.861Z,67.77
2023-02-24T21:43:44.093Z,67.20
2023-02-24T21:46:13.220Z,67.93
2023-02-24T21:48:41.721Z,67.75
2023-02-24T21:51:11.829Z,68.29
2023-02-24T21:53:41.735Z,68.13
2023-02-24T21:56:16.554Z,68.42
2023-02-24T21:58:58.925Z,68.81
2023-02-24T22:01:39.473Z,68.06
2023-02-24T22:04:17.910Z,68.03
2023-02-24T22:06:45.255Z,67.46
2023-02-24T22:09:20.450Z,68.46
2023-02-24T22:11:49.732Z,68.25
2023-02-24T22:14:17.317Z,68.92
2023-02-24T22:16:44.583Z,68.54
2023-02-24T22:19:12.206Z,68.84
2023-02-24T22:21:42.281Z,69.12
2023-02-24T22:24:16.148Z,68.10
2023-02-24T22:26:44.182Z,68.23
2023-02-24T22:29:11.640Z,68.83
2023-02-24T22:31:39.570Z,68.50
2023-02-24T22:34:08.587Z,69.61
2023-02-24T22:36:38.955Z,67.70
2023-02-24T22:39:08.836Z,67.92
2023-02-24T22:41:36.567Z,67.23
2023-02-24T22:44:05.981Z,66.77
2023-02-24T22:46:36.517Z,67.02
2023-02-24T22:49:04.149Z,66.60
2023-02-24T22:51:31.152Z,67.60
2023-02-24T22:53:58.055Z,68.24
2023-02-24T22:56:27.257Z,67.02
2023-02-24T22:58:54.983Z,69.05
2023-02-24T23:01:26.146Z,69.25
2023-02-24T23:03:53.472Z,68.31
2023-02-24T23:06:23.799Z,69.18
2023-02-24T23:08:51.562Z,69.59
2023-02-24T23:11:22.630Z,70.11
2023-02-24T23:13:51.277Z,70.75
2023-02-24T23:16:21.987Z,69.48
2023-02-24T23:18:54.230Z,69.12
2023-02-24T23:21:25.585Z,69.48
2023-02-24T23:24:00.069Z,69.45
2023-02-24T23:26:42.692Z,67.94
2023-02-24T23:29:12.547Z,69.48
2023-02-24T23:31:40.651Z,69.55
2023-02-24T23:34:08.036Z,68.34
2023-02-24T23:36:41.623Z,68.00
2023-02-24T23:39:09.749Z,68.00
2023-02-24T23:41:38.366Z,67.92
2023-02-24T23:44:06.313Z,67.71
2023-02-24T23:46:34.803Z,66.98
2023-02-24T23:49:02.148Z,67.42
2023-02-24T23:51:38.583Z,68.37
2023-02-24T23:54:11.001Z,67.30
2023-02-24T23:56:37.823Z,67.33
2023-02-24T23:59:04.621Z,67.46
